createdAt,value
2017-12-06T00:00:04.173Z,82.44
2017-12-06T00:01:09.215Z,82.37
2017-12-06T00:02:13.538Z,81.65
2017-12-06T00:03:17.757Z,81.88
2017-12-06T00:04:22.132Z,81.99
2017-12-06T00:05:27.296Z,81.93
2017-12-06T00:06:31.568Z,82.20
2017-12-06T00:07:35.967Z,81.81
2017-12-06T00:08:41.505Z,81.84
2017-12-06T00:09:45.686Z,81.94
2017-12-06T00:10:50.009Z,82.13
2017-12-06T00:11:54.263Z,81.87
2017-12-06T00:13:02.531Z,81.82
2017-12-06T00:16:13.298Z,82.06
2017-12-06T00:17:17.766Z,81.30
2017-12-06T00:18:22.350Z,81.61
2017-12-06T00:19:26.879Z,82.09
2017-12-06T00:20:31.564Z,81.95
2017-12-06T00:21:36.681Z,81.67
2017-12-06T00:22:41.026Z,81.82
2017-12-06T00:23:46.101Z,82.29
2017-12-06T00:24:51.092Z,82.13
2017-12-06T00:25:55.776Z,81.99
2017-12-06T00:27:00.063Z,82.10
2017-12-06T00:28:04.271Z,81.85
2017-12-06T00:29:08.630Z,81.72
2017-12-06T00:30:14.146Z,81.87
2017-12-06T00:31:18.581Z,81.74
2017-12-06T00:32:23.024Z,81.71
2017-12-06T00:33:27.376Z,81.42
2017-12-06T00:34:32.457Z,81.62
2017-12-06T00:35:37.315Z,81.41
2017-12-06T00:36:41.874Z,81.46
2017-12-06T00:37:47.116Z,81.79
2017-12-06T00:38:51.674Z,81.69
2017-12-06T00:39:55.922Z,81.74
2017-12-06T00:41:00.572Z,82.22
2017-12-06T00:42:04.993Z,82.10
2017-12-06T00:43:09.235Z,81.90
2017-12-06T00:44:20.484Z,81.88
2017-12-06T00:45:25.104Z,81.97
2017-12-06T00:46:29.522Z,82.16
2017-12-06T00:47:33.770Z,82.13
2017-12-06T00:48:38.187Z,81.90
2017-12-06T00:49:43.320Z,81.99
2017-12-06T00:50:47.614Z,82.55
2017-12-06T00:51:52.042Z,82.14
2017-12-06T00:52:56.308Z,82.21
2017-12-06T00:54:00.587Z,82.54
2017-12-06T00:55:04.797Z,82.44
2017-12-06T00:56:08.995Z,82.28
2017-12-06T00:57:16.091Z,82.36
2017-12-06T00:58:21.311Z,82.18
2017-12-06T01:00:46.028Z,82.42
2017-12-06T01:01:50.777Z,82.44
2017-12-06T01:02:54.988Z,82.24
2017-12-06T01:03:59.630Z,82.09
2017-12-06T01:05:04.829Z,82.33
2017-12-06T01:06:09.046Z,82.44
2017-12-06T01:07:13.356Z,82.47
2017-12-06T01:08:18.063Z,82.25
2017-12-06T01:09:22.629Z,82.39
2017-12-06T01:10:27.204Z,82.39
2017-12-06T01:11:31.503Z,82.81
2017-12-06T01:12:36.528Z,82.45
2017-12-06T01:13:42.637Z,82.13
2017-12-06T01:14:47.368Z,82.02
2017-12-06T01:15:52.099Z,81.87
2017-12-06T01:16:56.764Z,81.59
2017-12-06T01:18:01.729Z,81.42
2017-12-06T01:19:05.962Z,81.37
2017-12-06T01:20:10.224Z,81.40
2017-12-06T01:21:15.158Z,81.28
2017-12-06T01:22:19.416Z,80.89
2017-12-06T01:23:23.627Z,81.62
2017-12-06T01:24:28.261Z,81.43
2017-12-06T01:25:32.478Z,81.80
2017-12-06T01:26:37.235Z,81.59
2017-12-06T01:27:42.986Z,81.43
2017-12-06T01:28:47.262Z,81.67
2017-12-06T01:29:51.792Z,81.66
2017-12-06T01:30:56.145Z,81.78
2017-12-06T01:32:00.733Z,81.96
2017-12-06T01:33:05.309Z,81.50
2017-12-06T01:34:09.525Z,81.60
2017-12-06T01:35:13.945Z,81.88
2017-12-06T01:36:18.202Z,81.67
2017-12-06T01:37:22.586Z,81.66
2017-12-06T01:38:26.812Z,82.01
2017-12-06T01:39:31.433Z,81.55
2017-12-06T01:40:36.065Z,81.81
2017-12-06T01:41:40.291Z,81.77
2017-12-06T01:42:44.632Z,81.77
2017-12-06T01:43:51.596Z,81.41
2017-12-06T01:44:56.673Z,81.33
2017-12-06T01:46:01.862Z,81.34
2017-12-06T01:47:06.280Z,81.57
2017-12-06T01:48:17.570Z,81.24
2017-12-06T01:49:21.774Z,81.26
2017-12-06T01:50:26.108Z,81.42
2017-12-06T01:51:30.364Z,80.91
2017-12-06T01:52:35.080Z,81.12
2017-12-06T01:53:39.418Z,81.53
2017-12-06T01:54:44.595Z,81.53
2017-12-06T01:55:48.855Z,81.51
2017-12-06T01:56:53.359Z,81.37
2017-12-06T01:57:57.603Z,81.37
2017-12-06T01:59:02.215Z,81.45
2017-12-06T02:00:08.052Z,81.67
2017-12-06T02:01:13.623Z,81.71
2017-12-06T02:02:17.821Z,81.50
2017-12-06T02:03:22.109Z,81.45
2017-12-06T02:04:26.653Z,81.40
2017-12-06T02:05:30.943Z,81.99
2017-12-06T02:06:36.053Z,81.41
2017-12-06T02:07:41.138Z,81.68
2017-12-06T02:08:45.327Z,81.95
2017-12-06T02:09:49.538Z,82.00
2017-12-06T02:10:54.065Z,81.43
2017-12-06T02:11:58.314Z,81.36
2017-12-06T02:13:02.702Z,81.30
2017-12-06T02:14:07.018Z,81.57
2017-12-06T02:15:12.792Z,81.19
2017-12-06T02:16:17.495Z,81.04
2017-12-06T02:17:22.034Z,81.70
2017-12-06T02:18:26.380Z,81.49
2017-12-06T02:19:30.681Z,81.81
2017-12-06T02:20:35.841Z,81.30
2017-12-06T02:21:40.998Z,80.84
2017-12-06T02:22:45.273Z,80.79
2017-12-06T02:23:49.786Z,80.83
2017-12-06T02:24:54.353Z,80.97
2017-12-06T02:25:58.608Z,80.81
2017-12-06T02:27:02.856Z,80.87
2017-12-06T02:28:07.114Z,80.85
2017-12-06T02:29:17.532Z,80.64
2017-12-06T02:30:23.031Z,80.51
2017-12-06T02:31:27.286Z,80.55
2017-12-06T02:32:31.890Z,80.42
2017-12-06T02:33:36.355Z,80.35
2017-12-06T02:34:41.134Z,80.75
2017-12-06T02:35:46.821Z,81.03
2017-12-06T02:36:51.048Z,80.94
2017-12-06T02:37:56.206Z,80.46
2017-12-06T02:39:01.138Z,80.73
2017-12-06T02:42:22.256Z,80.98
2017-12-06T02:45:34.330Z,80.90
2017-12-06T02:46:38.613Z,81.06
2017-12-06T02:47:42.914Z,80.88
2017-12-06T02:48:47.147Z,80.95
2017-12-06T02:49:51.396Z,80.71
2017-12-06T02:50:55.919Z,80.76
2017-12-06T02:52:00.205Z,80.65
2017-12-06T02:53:04.515Z,81.12
2017-12-06T02:54:09.088Z,80.59
2017-12-06T02:55:13.415Z,80.40
2017-12-06T02:56:18.080Z,80.87
2017-12-06T02:57:22.296Z,80.32
2017-12-06T02:58:26.732Z,80.12
2017-12-06T02:59:31.218Z,80.20
2017-12-06T03:00:36.751Z,80.38
2017-12-06T03:01:44.817Z,80.12
2017-12-06T03:02:49.034Z,80.24
2017-12-06T03:03:53.336Z,80.52
2017-12-06T03:04:57.600Z,80.28
2017-12-06T03:06:03.001Z,80.28
2017-12-06T03:07:07.230Z,80.25
2017-12-06T03:08:18.348Z,80.68
2017-12-06T03:09:23.037Z,80.67
2017-12-06T03:10:27.268Z,80.63
2017-12-06T03:11:31.472Z,80.28
2017-12-06T03:12:36.678Z,80.30
2017-12-06T03:13:41.533Z,80.37
2017-12-06T03:14:45.798Z,80.51
2017-12-06T03:15:50.312Z,79.95
2017-12-06T03:16:54.832Z,80.07
2017-12-06T03:17:59.233Z,80.00
2017-12-06T03:19:03.816Z,80.18
2017-12-06T03:20:08.066Z,79.84
2017-12-06T03:21:13.190Z,80.25
2017-12-06T03:22:17.506Z,80.18
2017-12-06T03:23:21.720Z,80.39
2017-12-06T03:24:26.373Z,79.92
2017-12-06T03:25:31.065Z,79.91
2017-12-06T03:26:35.296Z,80.05
2017-12-06T03:27:40.487Z,80.35
2017-12-06T03:28:44.816Z,80.28
2017-12-06T03:29:49.538Z,80.45
2017-12-06T03:30:54.181Z,80.48
2017-12-06T03:31:59.728Z,80.62
2017-12-06T03:33:04.137Z,80.79
2017-12-06T03:34:09.111Z,80.85
2017-12-06T03:35:13.305Z,81.04
2017-12-06T03:36:17.572Z,80.72
2017-12-06T03:37:23.436Z,80.92
2017-12-06T03:38:27.741Z,80.26
2017-12-06T03:39:32.260Z,80.42
2017-12-06T03:40:38.892Z,80.29
2017-12-06T03:41:43.381Z,80.48
2017-12-06T03:42:48.234Z,80.10
2017-12-06T03:43:52.876Z,80.52
2017-12-06T03:44:57.129Z,80.26
2017-12-06T03:46:01.556Z,80.62
2017-12-06T03:47:05.769Z,80.57
2017-12-06T03:48:10.006Z,80.37
2017-12-06T03:49:15.111Z,80.50
2017-12-06T03:50:24.871Z,80.25
2017-12-06T03:51:29.113Z,80.30
2017-12-06T03:52:33.938Z,80.20
2017-12-06T03:53:38.290Z,80.12
2017-12-06T03:54:42.518Z,80.88
2017-12-06T03:55:46.737Z,80.37
2017-12-06T03:56:51.291Z,80.62
2017-12-06T03:57:55.929Z,80.92
2017-12-06T03:59:00.377Z,80.18
2017-12-06T04:00:06.322Z,80.10
2017-12-06T04:01:10.773Z,80.42
2017-12-06T04:02:15.548Z,80.05
2017-12-06T04:03:19.834Z,79.66
2017-12-06T04:04:24.130Z,80.07
2017-12-06T04:05:28.458Z,80.15
2017-12-06T04:06:32.757Z,80.01
2017-12-06T04:07:37.179Z,80.21
2017-12-06T04:08:41.744Z,79.86
2017-12-06T04:09:48.168Z,80.20
2017-12-06T04:10:52.605Z,80.55
2017-12-06T04:11:57.177Z,80.18
2017-12-06T04:13:01.449Z,80.13
2017-12-06T04:14:05.684Z,80.29
2017-12-06T04:15:10.930Z,80.39
2017-12-06T04:16:17.341Z,80.31
2017-12-06T04:17:21.563Z,80.08
2017-12-06T04:18:25.740Z,80.45
2017-12-06T04:19:29.994Z,80.55
2017-12-06T04:20:34.288Z,80.61
2017-12-06T04:21:38.519Z,80.53
2017-12-06T04:22:42.809Z,81.60
2017-12-06T04:23:47.352Z,80.94
2017-12-06T04:24:51.679Z,81.14
2017-12-06T04:25:56.018Z,80.76
2017-12-06T04:27:01.057Z,81.00
2017-12-06T04:28:05.342Z,81.31
2017-12-06T04:29:09.571Z,80.67
2017-12-06T04:30:15.648Z,80.68
2017-12-06T04:31:19.965Z,81.05
2017-12-06T04:32:25.551Z,80.92
2017-12-06T04:33:30.648Z,82.32
2017-12-06T04:34:34.925Z,80.94
2017-12-06T04:35:40.276Z,81.19
2017-12-06T04:36:44.487Z,81.30
2017-12-06T04:37:49.057Z,81.50
2017-12-06T04:38:53.392Z,81.17
2017-12-06T04:39:57.573Z,80.99
2017-12-06T04:41:01.940Z,81.07
2017-12-06T04:42:07.690Z,81.08
2017-12-06T04:43:11.964Z,81.13
2017-12-06T04:44:16.468Z,80.84
2017-12-06T04:45:20.717Z,80.50
2017-12-06T04:46:26.576Z,80.22
2017-12-06T04:47:30.825Z,80.10
2017-12-06T04:48:35.073Z,81.02
2017-12-06T04:49:39.465Z,80.23
2017-12-06T04:50:44.116Z,79.55
2017-12-06T04:51:48.880Z,79.37
2017-12-06T04:52:54.024Z,79.64
2017-12-06T04:53:58.214Z,79.55
2017-12-06T04:55:02.431Z,78.68
2017-12-06T04:56:07.672Z,78.12
2017-12-06T04:57:12.292Z,78.22
2017-12-06T04:58:17.429Z,78.03
2017-12-06T04:59:21.695Z,78.67
2017-12-06T05:01:40.330Z,77.62
2017-12-06T05:02:44.890Z,78.31
2017-12-06T05:03:49.444Z,77.86
2017-12-06T05:04:53.648Z,78.21
2017-12-06T05:05:57.932Z,78.15
2017-12-06T05:07:02.292Z,77.78
2017-12-06T05:08:06.612Z,78.32
2017-12-06T05:09:10.906Z,77.89
2017-12-06T05:10:15.407Z,78.64
2017-12-06T05:11:19.609Z,77.83
2017-12-06T05:12:23.892Z,78.26
2017-12-06T05:13:28.076Z,77.86
2017-12-06T05:14:32.255Z,78.53
2017-12-06T05:15:36.604Z,77.91
2017-12-06T05:16:41.661Z,78.07
2017-12-06T05:17:46.175Z,78.17
2017-12-06T05:18:50.482Z,77.99
2017-12-06T05:19:54.713Z,78.14
2017-12-06T05:20:59.164Z,77.98
2017-12-06T05:22:04.176Z,77.89
2017-12-06T05:23:09.525Z,77.87
2017-12-06T05:24:17.951Z,77.55
2017-12-06T05:25:23.965Z,77.60
2017-12-06T05:26:28.452Z,77.77
2017-12-06T05:27:32.657Z,78.19
2017-12-06T05:28:37.401Z,77.79
2017-12-06T05:29:41.655Z,77.90
2017-12-06T05:30:46.152Z,78.11
2017-12-06T05:31:50.460Z,78.19
2017-12-06T05:32:54.707Z,78.01
2017-12-06T05:33:59.053Z,78.13
2017-12-06T05:35:03.918Z,78.00
2017-12-06T05:36:08.156Z,78.42
2017-12-06T05:37:17.135Z,77.90
2017-12-06T05:38:21.533Z,77.65
2017-12-06T05:39:26.107Z,77.63
2017-12-06T05:40:30.618Z,77.72
2017-12-06T05:41:34.904Z,77.89
2017-12-06T05:42:39.182Z,77.42
2017-12-06T05:43:43.430Z,78.06
2017-12-06T05:44:47.821Z,78.36
2017-12-06T05:45:52.513Z,78.56
2017-12-06T05:46:56.752Z,78.05
2017-12-06T05:48:00.980Z,77.90
2017-12-06T05:49:05.207Z,77.95
2017-12-06T05:50:09.824Z,78.00
2017-12-06T05:51:14.313Z,77.82
2017-12-06T05:52:18.718Z,77.80
2017-12-06T05:53:22.933Z,77.81
2017-12-06T05:54:27.362Z,77.85
2017-12-06T05:55:31.644Z,77.94
2017-12-06T05:56:36.349Z,77.63
2017-12-06T05:57:41.615Z,77.63
2017-12-06T05:58:46.036Z,77.98
2017-12-06T06:01:00.727Z,78.08
2017-12-06T06:02:04.944Z,77.90
2017-12-06T06:03:09.174Z,78.46
2017-12-06T06:04:13.424Z,78.50
2017-12-06T06:05:17.733Z,78.55
2017-12-06T06:06:22.070Z,78.03
2017-12-06T06:07:26.370Z,78.22
2017-12-06T06:08:30.665Z,78.22
2017-12-06T06:09:35.276Z,78.45
2017-12-06T06:10:39.599Z,78.46
2017-12-06T06:11:43.937Z,78.27
2017-12-06T06:12:48.898Z,78.15
2017-12-06T06:13:53.205Z,78.63
2017-12-06T06:14:57.446Z,78.64
2017-12-06T06:16:02.046Z,78.50
2017-12-06T06:17:06.642Z,79.10
2017-12-06T06:18:10.880Z,78.53
2017-12-06T06:19:15.223Z,78.68
2017-12-06T06:20:19.468Z,78.83
2017-12-06T06:21:24.139Z,78.82
2017-12-06T06:22:28.388Z,79.08
2017-12-06T06:23:32.642Z,78.99
2017-12-06T06:24:37.178Z,79.13
2017-12-06T06:25:42.389Z,79.12
2017-12-06T06:26:48.188Z,78.76
2017-12-06T06:27:52.517Z,79.13
2017-12-06T06:28:56.745Z,78.46
2017-12-06T06:30:01.038Z,78.52
2017-12-06T06:31:05.889Z,78.21
2017-12-06T06:32:17.330Z,78.25
2017-12-06T06:33:21.667Z,78.80
2017-12-06T06:34:25.889Z,78.79
2017-12-06T06:35:30.201Z,79.18
2017-12-06T06:36:34.481Z,78.95
2017-12-06T06:37:38.963Z,78.76
2017-12-06T06:38:44.396Z,78.13
2017-12-06T06:39:49.161Z,78.11
2017-12-06T06:40:54.157Z,78.29
2017-12-06T06:41:58.410Z,78.50
2017-12-06T06:43:02.685Z,78.14
2017-12-06T06:44:07.508Z,78.28
2017-12-06T06:45:13.435Z,77.97
2017-12-06T06:46:17.754Z,78.78
2017-12-06T06:47:21.990Z,77.95
2017-12-06T06:48:26.324Z,78.52
2017-12-06T06:49:30.529Z,78.23
2017-12-06T06:50:34.765Z,78.42
2017-12-06T06:51:39.138Z,78.03
2017-12-06T06:52:44.308Z,77.83
2017-12-06T06:53:48.668Z,78.02
2017-12-06T06:54:53.461Z,78.30
2017-12-06T06:55:57.680Z,77.70
2017-12-06T06:57:02.052Z,77.98
2017-12-06T06:58:06.288Z,78.09
2017-12-06T06:59:10.592Z,77.88
2017-12-06T07:00:18.152Z,77.53
2017-12-06T07:01:22.424Z,77.69
2017-12-06T07:02:26.787Z,77.37
2017-12-06T07:03:31.808Z,77.86
2017-12-06T07:04:36.020Z,77.85
2017-12-06T07:05:40.303Z,78.03
2017-12-06T07:06:45.008Z,77.94
2017-12-06T07:07:49.305Z,77.84
2017-12-06T07:08:53.637Z,77.50
2017-12-06T07:09:57.872Z,77.70
2017-12-06T07:11:02.121Z,77.45
2017-12-06T07:12:06.822Z,77.69
2017-12-06T07:13:12.284Z,77.53
2017-12-06T07:14:16.644Z,77.53
2017-12-06T07:15:20.869Z,77.58
2017-12-06T07:16:26.303Z,78.08
2017-12-06T07:17:32.616Z,77.84
2017-12-06T07:18:38.679Z,78.24
2017-12-06T07:19:47.580Z,78.20
2017-12-06T07:20:51.873Z,77.81
2017-12-06T07:21:56.257Z,77.85
2017-12-06T07:23:00.642Z,77.41
2017-12-06T07:24:04.996Z,77.31
2017-12-06T07:25:09.915Z,77.40
2017-12-06T07:26:14.366Z,77.20
2017-12-06T07:27:18.684Z,77.17
2017-12-06T07:28:23.020Z,77.72
2017-12-06T07:29:27.253Z,77.36
2017-12-06T07:30:31.679Z,76.80
2017-12-06T07:31:36.584Z,77.13
2017-12-06T07:32:42.107Z,77.34
2017-12-06T07:33:46.488Z,76.98
2017-12-06T07:34:51.383Z,76.93
2017-12-06T07:35:55.630Z,77.35
2017-12-06T07:36:59.977Z,77.43
2017-12-06T07:38:04.625Z,77.41
2017-12-06T07:39:08.832Z,77.67
2017-12-06T07:40:13.165Z,77.23
2017-12-06T07:41:17.411Z,77.31
2017-12-06T07:42:21.663Z,77.31
2017-12-06T07:43:26.000Z,77.27
2017-12-06T07:44:30.600Z,77.38
2017-12-06T07:45:35.145Z,77.48
2017-12-06T07:46:40.058Z,77.98
2017-12-06T07:47:44.412Z,77.48
2017-12-06T07:48:49.324Z,77.33
2017-12-06T07:49:53.579Z,77.69
2017-12-06T07:50:58.096Z,77.44
2017-12-06T07:52:02.329Z,77.16
2017-12-06T07:53:06.876Z,77.00
2017-12-06T07:54:11.056Z,76.95
2017-12-06T07:55:15.261Z,76.84
2017-12-06T07:56:19.527Z,76.96
2017-12-06T07:57:24.089Z,77.29
2017-12-06T07:58:32.400Z,77.28
2017-12-06T07:59:36.693Z,77.63
2017-12-06T08:00:41.675Z,77.12
2017-12-06T08:01:46.309Z,77.31
2017-12-06T08:02:50.573Z,77.59
2017-12-06T08:03:54.999Z,77.46
2017-12-06T08:04:59.291Z,78.03
2017-12-06T08:06:03.505Z,77.70
2017-12-06T08:07:07.676Z,77.57
2017-12-06T08:08:11.896Z,77.71
2017-12-06T08:09:16.540Z,78.01
2017-12-06T08:10:21.577Z,77.53
2017-12-06T08:11:25.923Z,77.68
2017-12-06T08:12:30.185Z,77.55
2017-12-06T08:13:34.467Z,77.61
2017-12-06T08:14:38.787Z,77.29
2017-12-06T08:15:43.566Z,77.37
2017-12-06T08:16:48.084Z,77.61
2017-12-06T08:17:52.322Z,77.17
2017-12-06T08:18:56.633Z,77.14
2017-12-06T08:20:00.978Z,77.19
2017-12-06T08:21:09.504Z,76.95
2017-12-06T08:22:13.803Z,77.20
2017-12-06T08:23:18.108Z,76.90
2017-12-06T08:24:23.490Z,76.86
2017-12-06T08:25:27.863Z,76.88
2017-12-06T08:26:32.152Z,77.16
2017-12-06T08:27:36.437Z,76.74
2017-12-06T08:28:40.721Z,76.78
2017-12-06T08:29:44.977Z,76.93
2017-12-06T08:30:50.609Z,77.19
2017-12-06T08:31:54.857Z,76.15
2017-12-06T08:32:59.390Z,76.26
2017-12-06T08:34:03.596Z,76.52
2017-12-06T08:35:07.929Z,76.28
2017-12-06T08:36:13.603Z,76.96
2017-12-06T08:37:17.872Z,77.00
2017-12-06T08:38:22.114Z,76.83
2017-12-06T08:39:26.873Z,76.60
2017-12-06T08:40:31.225Z,76.91
2017-12-06T08:41:35.620Z,76.86
2017-12-06T08:42:39.834Z,76.69
2017-12-06T08:43:44.084Z,76.73
2017-12-06T08:44:48.307Z,76.99
2017-12-06T08:45:53.087Z,76.72
2017-12-06T08:46:57.475Z,76.78
2017-12-06T08:48:01.669Z,76.67
2017-12-06T08:49:06.049Z,76.60
2017-12-06T08:50:10.273Z,76.70
2017-12-06T08:51:14.516Z,76.78
2017-12-06T08:52:18.936Z,76.57
2017-12-06T08:53:23.173Z,76.06
2017-12-06T08:54:27.550Z,76.60
2017-12-06T08:55:31.851Z,76.65
2017-12-06T08:56:36.140Z,76.87
2017-12-06T08:57:40.540Z,76.74
2017-12-06T08:58:46.128Z,76.48
2017-12-06T08:59:50.346Z,76.50
2017-12-06T09:00:54.616Z,76.51
2017-12-06T09:01:58.911Z,76.82
2017-12-06T09:03:03.166Z,77.08
2017-12-06T09:04:07.609Z,76.63
2017-12-06T09:05:11.826Z,76.58
2017-12-06T09:06:16.037Z,76.12
2017-12-06T09:07:20.332Z,76.57
2017-12-06T09:08:24.601Z,76.83
2017-12-06T09:09:28.916Z,76.56
2017-12-06T09:10:33.554Z,76.28
2017-12-06T09:11:37.818Z,76.48
2017-12-06T09:12:43.113Z,76.79
2017-12-06T09:13:47.436Z,75.97
2017-12-06T09:14:51.689Z,76.62
2017-12-06T09:15:56.146Z,76.79
2017-12-06T09:17:00.461Z,76.51
2017-12-06T09:18:04.994Z,76.20
2017-12-06T09:19:09.256Z,76.18
2017-12-06T09:20:13.503Z,76.23
2017-12-06T09:21:17.833Z,77.09
2017-12-06T09:22:22.132Z,76.43
2017-12-06T09:23:26.665Z,76.96
2017-12-06T09:24:30.921Z,76.84
2017-12-06T09:25:35.191Z,76.63
2017-12-06T09:26:40.327Z,76.57
2017-12-06T09:27:44.620Z,76.92
2017-12-06T09:28:49.811Z,76.74
2017-12-06T09:29:54.398Z,76.17
2017-12-06T09:30:58.674Z,76.39
2017-12-06T09:32:03.006Z,76.70
2017-12-06T09:33:07.304Z,76.31
2017-12-06T09:34:11.788Z,76.86
2017-12-06T09:35:16.046Z,76.66
2017-12-06T09:36:20.681Z,76.41
2017-12-06T09:37:25.323Z,76.36
2017-12-06T09:38:30.030Z,77.21
2017-12-06T09:39:34.757Z,76.81
2017-12-06T09:40:40.142Z,76.90
2017-12-06T09:41:44.661Z,76.96
2017-12-06T09:42:50.345Z,76.84
2017-12-06T09:43:54.920Z,76.84
2017-12-06T09:44:59.270Z,76.15
2017-12-06T09:46:03.945Z,76.69
2017-12-06T09:47:08.272Z,77.14
2017-12-06T09:48:12.789Z,76.74
2017-12-06T09:49:16.997Z,76.67
2017-12-06T09:50:21.334Z,76.32
2017-12-06T09:51:25.576Z,76.48
2017-12-06T09:52:30.023Z,77.15
2017-12-06T09:53:34.399Z,76.73
2017-12-06T09:54:39.284Z,76.90
2017-12-06T09:55:43.620Z,76.99
2017-12-06T09:56:48.926Z,77.32
2017-12-06T09:57:53.339Z,76.73
2017-12-06T09:58:57.656Z,77.02
2017-12-06T10:00:04.433Z,76.99
2017-12-06T10:01:08.994Z,76.87
2017-12-06T10:02:13.485Z,76.87
2017-12-06T10:03:18.222Z,76.83
2017-12-06T10:04:22.571Z,76.56
2017-12-06T10:05:26.823Z,76.80
2017-12-06T10:06:31.448Z,76.62
2017-12-06T10:07:35.844Z,76.97
2017-12-06T10:08:44.057Z,76.81
2017-12-06T10:09:48.414Z,76.38
2017-12-06T10:10:52.638Z,76.61
2017-12-06T10:11:56.912Z,76.16
2017-12-06T10:13:01.234Z,77.04
2017-12-06T10:14:05.452Z,76.63
2017-12-06T10:15:13.106Z,77.09
2017-12-06T10:16:17.484Z,77.12
2017-12-06T10:17:21.763Z,76.74
2017-12-06T10:18:26.310Z,76.53
2017-12-06T10:19:30.506Z,76.46
2017-12-06T10:20:34.852Z,76.37
2017-12-06T10:21:39.429Z,76.60
2017-12-06T10:22:43.732Z,76.42
2017-12-06T10:23:48.111Z,76.31
2017-12-06T10:24:53.917Z,76.67
2017-12-06T10:25:58.598Z,76.35
2017-12-06T10:27:02.936Z,76.40
2017-12-06T10:28:07.200Z,75.76
2017-12-06T10:29:11.578Z,76.21
2017-12-06T10:30:16.622Z,76.43
2017-12-06T10:31:21.200Z,76.17
2017-12-06T10:32:25.854Z,76.83
2017-12-06T10:33:30.361Z,76.66
2017-12-06T10:34:35.056Z,76.78
2017-12-06T10:35:39.376Z,76.90
2017-12-06T10:36:44.596Z,76.79
2017-12-06T10:37:49.849Z,76.59
2017-12-06T10:38:54.056Z,76.42
2017-12-06T10:39:58.282Z,76.21
2017-12-06T10:41:02.688Z,76.72
2017-12-06T10:42:07.258Z,76.26
2017-12-06T10:43:11.543Z,76.13
2017-12-06T10:44:18.154Z,76.32
2017-12-06T10:45:22.871Z,76.48
2017-12-06T10:46:27.635Z,76.23
2017-12-06T10:47:31.943Z,76.46
2017-12-06T10:48:37.185Z,76.59
2017-12-06T10:49:41.580Z,76.41
2017-12-06T10:50:45.864Z,75.97
2017-12-06T10:51:52.929Z,76.26
2017-12-06T10:52:57.303Z,76.48
2017-12-06T10:54:01.563Z,76.60
2017-12-06T10:55:05.848Z,76.13
2017-12-06T10:56:17.876Z,76.07
2017-12-06T10:57:22.261Z,76.13
2017-12-06T10:58:26.591Z,75.73
2017-12-06T10:59:31.299Z,75.55
2017-12-06T11:00:38.687Z,76.25
2017-12-06T11:01:43.640Z,76.51
2017-12-06T11:02:48.835Z,76.20
2017-12-06T11:03:53.978Z,75.62
2017-12-06T11:04:59.232Z,75.50
2017-12-06T11:06:04.183Z,76.32
2017-12-06T11:07:08.429Z,76.04
2017-12-06T11:08:13.090Z,76.21
2017-12-06T11:09:17.434Z,76.57
2017-12-06T11:10:22.277Z,76.49
2017-12-06T11:11:27.222Z,75.61
2017-12-06T11:12:31.485Z,75.92
2017-12-06T11:13:35.884Z,76.35
2017-12-06T11:14:41.267Z,76.59
2017-12-06T11:15:47.812Z,76.37
2017-12-06T11:16:52.851Z,76.07
2017-12-06T11:17:57.240Z,76.27
2017-12-06T11:19:01.811Z,75.53
2017-12-06T11:20:10.598Z,76.10
2017-12-06T11:21:15.213Z,76.40
2017-12-06T11:22:19.473Z,76.18
2017-12-06T11:23:23.714Z,75.88
2017-12-06T11:24:28.207Z,75.97
2017-12-06T11:25:32.762Z,76.59
2017-12-06T11:26:37.067Z,76.53
2017-12-06T11:27:41.992Z,76.49
2017-12-06T11:28:46.415Z,76.43
2017-12-06T11:29:50.648Z,76.52
2017-12-06T11:30:55.121Z,76.30
2017-12-06T11:31:59.768Z,76.36
2017-12-06T11:33:04.044Z,76.68
2017-12-06T11:34:08.406Z,76.92
2017-12-06T11:35:12.628Z,76.88
2017-12-06T11:36:16.969Z,76.48
2017-12-06T11:37:21.252Z,76.62
2017-12-06T11:38:25.484Z,76.33
2017-12-06T11:39:29.767Z,75.92
2017-12-06T11:40:34.269Z,76.39
2017-12-06T11:41:39.663Z,76.25
2017-12-06T11:42:43.959Z,76.29
2017-12-06T11:43:48.243Z,76.34
2017-12-06T11:44:52.767Z,76.71
2017-12-06T11:45:57.353Z,77.16
2017-12-06T11:47:01.951Z,76.11
2017-12-06T11:48:07.331Z,75.97
2017-12-06T11:49:11.554Z,76.10
2017-12-06T11:50:16.916Z,76.56
2017-12-06T11:51:21.200Z,76.29
2017-12-06T11:52:25.526Z,75.67
2017-12-06T11:53:29.867Z,75.61
2017-12-06T11:54:35.247Z,75.97
2017-12-06T11:55:39.520Z,75.75
2017-12-06T11:56:44.330Z,76.43
2017-12-06T11:57:50.016Z,76.67
2017-12-06T11:58:56.491Z,76.06
2017-12-06T12:00:07.963Z,75.92
2017-12-06T12:01:12.510Z,76.28
2017-12-06T12:02:18.507Z,75.59
2017-12-06T12:03:22.845Z,75.94
2017-12-06T12:04:27.108Z,76.16
2017-12-06T12:05:32.332Z,76.36
2017-12-06T12:06:36.627Z,76.14
2017-12-06T12:07:41.170Z,76.10
2017-12-06T12:08:45.581Z,76.22
2017-12-06T12:09:50.707Z,76.06
2017-12-06T12:10:55.117Z,76.71
2017-12-06T12:11:59.405Z,75.99
2017-12-06T12:13:03.704Z,75.62
2017-12-06T12:14:08.317Z,75.52
2017-12-06T12:15:18.756Z,75.56
2017-12-06T12:16:23.191Z,75.08
2017-12-06T12:17:28.862Z,74.80
2017-12-06T12:18:33.215Z,74.88
2017-12-06T12:19:37.882Z,75.31
2017-12-06T12:20:42.150Z,75.13
2017-12-06T12:21:46.432Z,75.32
2017-12-06T12:22:53.320Z,76.02
2017-12-06T12:23:57.593Z,76.16
2017-12-06T12:25:01.975Z,75.90
2017-12-06T12:26:07.525Z,75.77
2017-12-06T12:27:11.815Z,76.12
2017-12-06T12:28:16.203Z,75.50
2017-12-06T12:29:20.489Z,75.98
2017-12-06T12:30:25.310Z,75.59
2017-12-06T12:31:30.266Z,75.27
2017-12-06T12:32:34.516Z,75.70
2017-12-06T12:33:38.882Z,75.71
2017-12-06T12:34:44.744Z,75.96
2017-12-06T12:35:49.021Z,75.81
2017-12-06T12:36:53.275Z,76.19
2017-12-06T12:37:58.108Z,76.50
2017-12-06T12:39:02.605Z,76.50
2017-12-06T12:40:07.403Z,76.22
2017-12-06T12:41:11.700Z,76.01
2017-12-06T12:42:18.148Z,75.99
2017-12-06T12:43:22.504Z,75.92
2017-12-06T12:44:26.828Z,75.94
2017-12-06T12:45:31.514Z,75.79
2017-12-06T12:46:35.898Z,75.68
2017-12-06T12:47:40.231Z,76.45
2017-12-06T12:48:44.540Z,75.87
2017-12-06T12:49:48.800Z,75.81
2017-12-06T12:50:53.221Z,76.16
2017-12-06T12:51:58.235Z,76.03
2017-12-06T12:53:02.604Z,76.04
2017-12-06T12:54:06.882Z,76.46
2017-12-06T12:55:11.248Z,76.20
2017-12-06T12:56:16.985Z,76.50
2017-12-06T12:57:22.326Z,76.55
2017-12-06T12:58:28.365Z,76.77
2017-12-06T12:59:33.893Z,77.29
2017-12-06T13:00:40.351Z,76.79
2017-12-06T13:01:46.327Z,76.91
2017-12-06T13:02:51.345Z,76.96
2017-12-06T13:03:55.617Z,77.51
2017-12-06T13:04:59.921Z,78.21
2017-12-06T13:06:08.767Z,77.80
2017-12-06T13:07:13.147Z,77.82
2017-12-06T13:08:17.881Z,78.17
2017-12-06T13:09:22.433Z,77.89
2017-12-06T13:10:26.699Z,77.75
2017-12-06T13:11:31.364Z,77.74
2017-12-06T13:12:35.649Z,77.93
2017-12-06T13:13:39.916Z,77.76
2017-12-06T13:14:44.886Z,77.59
2017-12-06T13:15:49.905Z,77.83
2017-12-06T13:16:54.505Z,77.79
2017-12-06T13:17:58.836Z,78.17
2017-12-06T13:19:04.709Z,78.00
2017-12-06T13:20:09.343Z,77.98
2017-12-06T13:21:14.137Z,78.19
2017-12-06T13:22:18.553Z,78.10
2017-12-06T13:23:22.907Z,77.91
2017-12-06T13:24:27.318Z,78.00
2017-12-06T13:25:31.875Z,78.14
2017-12-06T13:26:37.771Z,78.14
2017-12-06T13:27:42.161Z,77.63
2017-12-06T13:28:46.512Z,77.70
2017-12-06T13:29:53.454Z,77.68
2017-12-06T13:30:57.783Z,77.66
2017-12-06T13:32:02.791Z,77.67
2017-12-06T13:33:08.324Z,77.47
2017-12-06T13:34:12.962Z,77.79
2017-12-06T13:35:18.488Z,77.93
2017-12-06T13:36:23.642Z,77.58
2017-12-06T13:37:28.230Z,77.80
2017-12-06T13:38:32.530Z,76.96
2017-12-06T13:39:36.849Z,77.07
2017-12-06T13:40:42.418Z,77.44
2017-12-06T13:41:47.341Z,77.34
2017-12-06T13:42:52.638Z,77.53
2017-12-06T13:43:57.821Z,77.70
2017-12-06T13:45:04.262Z,77.45
2017-12-06T13:46:10.819Z,77.01
2017-12-06T13:47:15.461Z,77.31
2017-12-06T13:48:20.216Z,77.15
2017-12-06T13:49:26.559Z,76.97
2017-12-06T13:50:30.940Z,76.90
2017-12-06T13:51:35.408Z,77.31
2017-12-06T13:52:46.874Z,77.05
2017-12-06T13:53:52.593Z,76.99
2017-12-06T13:54:56.972Z,77.02
2017-12-06T13:56:01.389Z,76.95
2017-12-06T13:57:06.242Z,76.90
2017-12-06T13:58:10.881Z,77.09
2017-12-06T13:59:15.800Z,77.64
2017-12-06T14:00:20.575Z,76.65
2017-12-06T14:01:27.303Z,76.47
2017-12-06T14:02:31.721Z,77.15
2017-12-06T14:03:36.368Z,77.36